createdAt,value
2023-02-23T06:04:17.684Z,95.30
2023-02-23T06:09:21.340Z,95.80
2023-02-23T06:14:24.931Z,96.00
2023-02-23T06:19:31.711Z,95.80
2023-02-23T06:24:35.440Z,95.70
2023-02-23T06:29:39.221Z,95.60
2023-02-23T06:34:44.868Z,95.50
2023-02-23T06:44:54.065Z,95.60
2023-02-23T06:49:59.909Z,95.80
2023-02-23T06:55:03.564Z,95.90
2023-02-23T07:00:08.417Z,95.90
2023-02-23T07:05:13.429Z,96.00
2023-02-23T07:10:17.280Z,96.10
2023-02-23T07:15:20.904Z,96.00
2023-02-23T07:20:25.929Z,96.00
2023-02-23T07:25:29.681Z,95.90
2023-02-23T07:30:33.418Z,96.10
2023-02-23T07:35:38.499Z,96.00
2023-02-23T07:40:42.168Z,96.10
2023-02-23T07:45:46.862Z,96.00
2023-02-23T07:50:52.009Z,96.00
2023-02-23T07:55:58.961Z,96.20
2023-02-23T08:01:02.668Z,95.80
2023-02-23T08:06:08.179Z,95.90
2023-02-23T08:11:12.157Z,95.90
2023-02-23T08:16:16.528Z,95.80
2023-02-23T08:21:21.827Z,95.70
2023-02-23T08:26:25.746Z,95.90
2023-02-23T08:31:29.502Z,95.70
2023-02-23T08:36:34.587Z,95.10
2023-02-23T08:41:38.288Z,95.00
2023-02-23T08:46:41.920Z,95.60
2023-02-23T08:51:47.465Z,95.60
2023-02-23T08:56:51.078Z,95.90
2023-02-23T09:01:54.761Z,95.90
2023-02-23T09:06:59.814Z,95.70
2023-02-23T09:12:03.454Z,95.70
2023-02-23T09:17:07.113Z,95.50
2023-02-23T09:22:12.292Z,94.90
2023-02-23T09:27:15.948Z,95.20
2023-02-23T09:32:19.697Z,95.60
2023-02-23T09:37:25.192Z,95.50
2023-02-23T09:42:41.240Z,95.50
2023-02-23T09:47:57.885Z,95.00
2023-02-23T09:53:06.723Z,94.50
2023-02-23T09:58:20.893Z,94.60
2023-02-23T10:03:28.649Z,94.30
2023-02-23T10:08:44.477Z,94.00
2023-02-23T10:13:57.412Z,94.10
2023-02-23T10:19:08.681Z,94.30
2023-02-23T10:24:19.445Z,94.40
2023-02-23T10:29:27.997Z,94.20
2023-02-23T10:34:32.526Z,93.80
2023-02-23T10:39:37.965Z,93.70
2023-02-23T10:44:44.606Z,93.90
2023-02-23T10:49:49.968Z,93.80
2023-02-23T10:54:54.983Z,93.90
2023-02-23T11:00:32.932Z,93.80
2023-02-23T11:05:44.466Z,93.80
2023-02-23T11:11:20.386Z,93.80
2023-02-23T11:16:25.564Z,93.80
2023-02-23T11:21:33.468Z,93.90
2023-02-23T11:26:42.310Z,93.70
2023-02-23T11:31:51.036Z,93.70
2023-02-23T11:37:02.728Z,93.70
2023-02-23T11:42:20.004Z,93.90
2023-02-23T11:47:26.072Z,94.20
2023-02-23T11:52:31.381Z,94.20
2023-02-23T11:57:37.658Z,94.30
2023-02-23T12:02:50.939Z,94.30
2023-02-23T12:08:00.941Z,94.40
2023-02-23T12:13:18.128Z,94.10
2023-02-23T12:18:38.421Z,93.70
2023-02-23T12:23:48.339Z,93.50
2023-02-23T12:28:59.723Z,93.00
2023-02-23T12:34:11.101Z,93.10
2023-02-23T12:39:22.497Z,93.20
2023-02-23T12:44:36.246Z,93.40
2023-02-23T12:49:45.560Z,93.40
2023-02-23T12:54:49.885Z,93.50
2023-02-23T13:00:30.939Z,93.50
2023-02-23T13:05:39.625Z,93.70
2023-02-23T13:10:49.452Z,93.90
2023-02-23T13:16:02.683Z,94.00
2023-02-23T13:21:14.161Z,94.00
2023-02-23T13:26:29.386Z,93.90
2023-02-23T13:31:36.942Z,93.90
2023-02-23T13:36:42.079Z,94.00
2023-02-23T13:41:51.607Z,93.80
2023-02-23T13:47:01.508Z,93.70
2023-02-23T13:52:20.716Z,93.70
2023-02-23T13:57:25.306Z,93.80
2023-02-23T14:02:40.897Z,93.90
2023-02-23T14:07:48.077Z,94.10
2023-02-23T14:13:24.924Z,94.20
2023-02-23T14:18:55.423Z,94.10
2023-02-23T14:24:15.432Z,94.40
2023-02-23T14:29:25.675Z,94.80
2023-02-23T14:34:51.858Z,95.10
2023-02-23T14:39:57.994Z,95.20
2023-02-23T14:45:06.888Z,95.20
2023-02-23T14:50:26.481Z,95.20
2023-02-23T14:55:35.307Z,95.50
2023-02-23T15:00:44.082Z,95.60
2023-02-23T15:05:53.770Z,95.70
2023-02-23T15:11:03.170Z,95.70
2023-02-23T15:16:10.080Z,95.90
2023-02-23T15:21:19.545Z,96.30
2023-02-23T15:26:32.127Z,96.40
2023-02-23T15:31:36.981Z,96.40
2023-02-23T15:36:44.215Z,96.50
2023-02-23T15:41:50.069Z,96.90
2023-02-23T15:46:57.053Z,97.00
2023-02-23T15:52:04.674Z,97.00
2023-02-23T15:57:17.416Z,97.20
2023-02-23T16:02:24.641Z,96.90
2023-02-23T16:07:38.248Z,96.80
2023-02-23T16:12:45.513Z,97.20
2023-02-23T16:17:53.053Z,96.80
2023-02-23T16:22:59.424Z,96.80
2023-02-23T16:28:05.787Z,97.10
2023-02-23T16:33:18.922Z,96.90
2023-02-23T16:38:28.183Z,96.70
2023-02-23T16:43:32.838Z,97.60
2023-02-23T16:48:36.830Z,97.70
2023-02-23T16:53:41.971Z,97.60
2023-02-23T16:58:48.429Z,97.60
2023-02-23T17:03:54.014Z,97.90
2023-02-23T17:08:59.080Z,97.80
2023-02-23T17:14:02.775Z,97.70
2023-02-23T17:19:07.446Z,97.90
2023-02-23T17:24:12.619Z,98.00
2023-02-23T17:29:17.072Z,98.20
2023-02-23T17:34:20.516Z,98.20
2023-02-23T17:39:28.177Z,98.10
2023-02-23T17:44:32.407Z,98.20
2023-02-23T17:49:36.125Z,98.50
2023-02-23T17:54:41.251Z,98.50
2023-02-23T17:59:44.958Z,98.50
2023-02-23T18:04:49.335Z,98.70
2023-02-23T18:09:54.192Z,98.70
2023-02-23T18:14:57.901Z,98.80
2023-02-23T18:20:01.627Z,98.60
2023-02-23T18:25:07.854Z,98.70
2023-02-23T18:30:13.015Z,98.80
2023-02-23T18:35:16.858Z,99.10
2023-02-23T18:40:23.963Z,99.10
2023-02-23T18:45:28.587Z,99.40
2023-02-23T18:50:32.024Z,99.50
2023-02-23T18:55:38.120Z,99.70
2023-02-23T19:00:42.908Z,99.40
2023-02-23T19:05:50.140Z,99.60
2023-02-23T19:10:55.255Z,99.70
2023-02-23T19:15:59.819Z,99.90
2023-02-23T19:21:03.502Z,99.90
2023-02-23T19:26:08.760Z,99.90
2023-02-23T19:31:15.957Z,99.90
2023-02-23T19:36:26.155Z,99.90
2023-02-23T19:41:31.210Z,99.90
2023-02-23T19:46:35.244Z,99.90
2023-02-23T19:51:39.010Z,99.90
2023-02-23T19:56:44.664Z,99.90
2023-02-23T20:01:51.498Z,99.90
2023-02-23T20:06:55.243Z,99.90
2023-02-23T20:12:00.175Z,99.90
2023-02-23T20:17:05.490Z,99.90
2023-02-23T20:22:09.907Z,99.90
2023-02-23T20:27:14.854Z,99.90
2023-02-23T20:32:19.037Z,99.90
2023-02-23T20:37:22.736Z,99.90
2023-02-23T20:42:28.712Z,99.90
2023-02-23T20:47:32.489Z,99.90
2023-02-23T20:52:36.082Z,99.90
2023-02-23T20:57:41.414Z,99.90
2023-02-23T21:02:45.175Z,99.90
2023-02-23T21:07:49.390Z,99.90
2023-02-23T21:12:56.052Z,99.90
2023-02-23T21:18:00.482Z,99.90
2023-02-23T21:23:04.229Z,99.90
2023-02-23T21:28:09.405Z,99.90
2023-02-23T21:33:13.065Z,99.90
2023-02-23T21:38:16.653Z,99.90
2023-02-23T21:43:22.053Z,99.90
2023-02-23T21:48:25.981Z,99.90
2023-02-23T21:53:29.604Z,99.90
2023-02-23T21:58:34.679Z,99.90
2023-02-23T22:03:38.285Z,99.90
2023-02-23T22:08:43.105Z,99.90
2023-02-23T22:13:49.713Z,99.90
2023-02-23T22:18:54.028Z,99.90
2023-02-23T22:23:57.661Z,99.90
2023-02-23T22:29:02.678Z,99.90
2023-02-23T22:34:07.306Z,99.90
2023-02-23T22:39:12.999Z,99.90
2023-02-23T22:44:20.355Z,99.90
2023-02-23T22:49:24.487Z,99.90
2023-02-23T22:54:28.178Z,99.90
2023-02-23T22:59:33.271Z,99.90
2023-02-23T23:04:37.792Z,99.90
2023-02-23T23:09:41.437Z,99.90
2023-02-23T23:14:47.348Z,99.90
2023-02-23T23:19:51.064Z,99.90
2023-02-23T23:24:55.054Z,99.90
2023-02-23T23:30:00.009Z,99.90
